createdAt,value
2019-04-19T00:00:13.829Z,50.8
2019-04-19T00:15:05.747Z,50.9
2019-04-19T00:30:37.612Z,51.1
2019-04-19T00:45:38.179Z,51.3
2019-04-19T01:00:04.379Z,51.4
2019-04-19T01:15:26.857Z,51.5
2019-04-19T01:30:06.356Z,51.4
2019-04-19T01:45:46.615Z,51.6
2019-04-19T02:00:11.182Z,51.9
2019-04-19T02:15:14.627Z,51.9
2019-04-19T02:30:33.631Z,52.1
2019-04-19T02:46:42.357Z,52.1
2019-04-19T03:01:18.447Z,52.5
2019-04-19T03:30:41.781Z,52.7
2019-04-19T03:45:49.851Z,52.8
2019-04-19T04:00:04.955Z,53
2019-04-19T04:15:28.638Z,53
2019-04-19T04:30:27.556Z,53
2019-04-19T04:45:45.956Z,53.4
2019-04-19T05:00:07.977Z,53.6
2019-04-19T05:15:52.727Z,53.9
2019-04-19T05:30:04.751Z,54.2
2019-04-19T05:45:51.369Z,55
2019-04-19T06:00:46.855Z,55.6
2019-04-19T06:15:53.788Z,55
2019-04-19T06:30:50.159Z,56.2
2019-04-19T06:45:44.881Z,56.5
2019-04-19T07:00:33.821Z,57.1
2019-04-19T07:16:18.978Z,57.9
2019-04-19T07:30:08.324Z,58.2
2019-04-19T07:45:12.653Z,58.3
2019-04-19T08:01:22.186Z,67.8
2019-04-19T08:15:59.089Z,56.7
2019-04-19T08:30:16.498Z,59.5
2019-04-19T08:45:16.529Z,55.3
2019-04-19T09:15:38.355Z,49.1
2019-04-19T09:30:46.682Z,48.5
2019-04-19T09:45:07.168Z,40.9
2019-04-19T10:00:18.777Z,43.4
2019-04-19T10:15:04.273Z,44.7
2019-04-19T10:30:06.355Z,46.3
2019-04-19T10:45:04.197Z,46.5
2019-04-19T11:00:04.440Z,47
2019-04-19T11:15:04.672Z,47.2
2019-04-19T11:30:05.549Z,47.1
2019-04-19T11:45:05.917Z,47.5
2019-04-19T12:00:06.294Z,47.6
2019-04-19T12:15:04.177Z,47.7
2019-04-19T12:30:05.554Z,47.4
2019-04-19T12:45:06.074Z,47.3
2019-04-19T13:00:05.726Z,46.9
2019-04-19T13:15:04.480Z,47
2019-04-19T13:30:27.646Z,46.7
2019-04-19T13:45:23.106Z,46.4
2019-04-19T14:00:09.937Z,46.4
2019-04-19T14:15:05.070Z,46.2
2019-04-19T14:30:05.285Z,46
2019-04-19T14:45:05.999Z,45.9
2019-04-19T15:00:05.203Z,45.7
2019-04-19T15:30:05.486Z,45.2
2019-04-19T15:45:05.096Z,44.6
2019-04-19T16:00:04.510Z,44.5
2019-04-19T16:15:06.268Z,44.4
2019-04-19T16:30:04.269Z,44.2
2019-04-19T16:45:06.020Z,44.1
2019-04-19T17:00:07.270Z,44
2019-04-19T17:15:05.373Z,44.2
2019-04-19T17:30:06.170Z,44.2
2019-04-19T17:45:05.357Z,44.4
2019-04-19T18:00:04.155Z,44.6
2019-04-19T18:15:05.889Z,44.7
2019-04-19T18:30:13.695Z,45.1
2019-04-19T18:45:04.972Z,45.4
2019-04-19T19:00:06.223Z,45.7
2019-04-19T19:15:06.379Z,45.8
2019-04-19T19:30:04.436Z,45.9
2019-04-19T19:45:37.418Z,46.3
2019-04-19T20:00:27.334Z,46.1
2019-04-19T20:15:11.483Z,46.3
2019-04-19T20:30:08.482Z,46.6
2019-04-19T20:45:24.046Z,46.4
2019-04-19T21:00:06.233Z,46.3
2019-04-19T21:15:24.140Z,46.3
2019-04-19T21:30:11.579Z,46.4
2019-04-19T21:45:07.825Z,46.1
2019-04-19T22:00:21.004Z,46
2019-04-19T22:15:14.397Z,46
2019-04-19T22:30:05.492Z,46.3
2019-04-19T22:45:14.109Z,45.9
2019-04-19T23:15:18.733Z,46
2019-04-19T23:30:18.718Z,46.1
2019-04-19T23:45:04.149Z,46.3
